createdAt,value
2022-08-11T00:02:00.361Z,98581.13
2022-08-11T00:04:27.943Z,98583.81
2022-08-11T00:06:55.242Z,98582.03
2022-08-11T00:09:24.919Z,98583.44
2022-08-11T00:11:58.581Z,98579.44
2022-08-11T00:14:37.009Z,98579.50
2022-08-11T00:17:15.424Z,98579.94
2022-08-11T00:20:12.507Z,98575.37
2022-08-11T00:22:34.808Z,98572.94
2022-08-11T00:25:12.198Z,98573.31
2022-08-11T00:27:41.263Z,98572.09
2022-08-11T00:30:11.074Z,98579.59
2022-08-11T00:32:40.288Z,98578.69
2022-08-11T00:35:50.908Z,98568.37
2022-08-11T00:37:57.107Z,98568.22
2022-08-11T00:40:30.989Z,98569.91
2022-08-11T00:43:39.810Z,98561.59
2022-08-11T00:46:29.715Z,98562.44
2022-08-11T00:49:11.934Z,98565.91
2022-08-11T00:52:13.059Z,98567.97
2022-08-11T00:54:56.576Z,98565.97
2022-08-11T00:57:52.214Z,98559.25
2022-08-11T01:00:27.312Z,98565.50
2022-08-11T01:03:27.105Z,98558.78
2022-08-11T01:06:23.839Z,98561.09
2022-08-11T01:09:22.995Z,98562.56
2022-08-11T01:12:16.317Z,98556.31
2022-08-11T01:14:49.379Z,98552.94
2022-08-11T01:17:41.002Z,98554.25
2022-08-11T01:20:49.437Z,98556.50
2022-08-11T01:23:25.581Z,98549.94
2022-08-11T01:26:40.413Z,98548.25
2022-08-11T01:29:10.278Z,98545.63
2022-08-11T01:32:29.472Z,98549.72
2022-08-11T01:35:21.244Z,98550.72
2022-08-11T01:38:27.666Z,98549.22
2022-08-11T01:41:09.653Z,98544.66
2022-08-11T01:44:15.569Z,98547.56
2022-08-11T01:46:46.889Z,98550.84
2022-08-11T01:50:08.325Z,98543.66
2022-08-11T01:52:33.355Z,98545.28
2022-08-11T01:55:19.899Z,98537.91
2022-08-11T01:58:06.918Z,98539.34
2022-08-11T02:00:46.725Z,98541.34
2022-08-11T02:03:41.332Z,98541.16
2022-08-11T02:06:56.277Z,98540.63
2022-08-11T02:09:49.652Z,98533.31
2022-08-11T02:12:27.649Z,98529.66
2022-08-11T02:15:15.855Z,98537.47
2022-08-11T02:18:05.386Z,98531.91
2022-08-11T02:21:07.972Z,98529.00
2022-08-11T02:24:05.912Z,98531.56
2022-08-11T02:26:37.685Z,98527.56
2022-08-11T02:29:23.197Z,98530.50
2022-08-11T02:32:28.406Z,98524.09
2022-08-11T02:35:20.774Z,98529.53
2022-08-11T02:38:15.779Z,98524.81
2022-08-11T02:40:59.430Z,98521.34
2022-08-11T02:43:47.955Z,98529.53
2022-08-11T02:46:59.880Z,98522.06
2022-08-11T02:50:00.027Z,98525.47
2022-08-11T02:52:51.214Z,98520.75
2022-08-11T02:55:46.001Z,98518.06
2022-08-11T02:58:37.160Z,98519.69
2022-08-11T03:01:16.933Z,98514.00
2022-08-11T03:04:04.660Z,98519.19
2022-08-11T03:06:35.991Z,98523.03
2022-08-11T03:09:38.141Z,98520.16
2022-08-11T03:12:30.104Z,98515.97
2022-08-11T03:15:22.207Z,98525.50
2022-08-11T03:18:03.284Z,98519.81
2022-08-11T03:20:51.691Z,98533.31
2022-08-11T03:23:56.966Z,98534.44
2022-08-11T03:26:38.770Z,98529.34
2022-08-11T03:29:25.119Z,98543.34
2022-08-11T03:32:13.423Z,98536.75
2022-08-11T03:34:41.781Z,98537.06
2022-08-11T03:37:43.560Z,98537.34
2022-08-11T03:40:37.985Z,98527.34
2022-08-11T03:43:32.780Z,98533.66
2022-08-11T03:46:11.088Z,98537.59
2022-08-11T03:48:40.865Z,98540.41
2022-08-11T03:51:19.312Z,98538.13
2022-08-11T03:54:25.325Z,98539.44
2022-08-11T03:57:19.827Z,98537.59
2022-08-11T04:00:19.227Z,98533.94
2022-08-11T04:03:23.900Z,98533.34
2022-08-11T04:06:34.520Z,98536.47
2022-08-11T04:09:52.637Z,98539.94
2022-08-11T04:12:51.263Z,98528.84
2022-08-11T04:15:55.180Z,98531.03
2022-08-11T04:18:46.506Z,98535.50
2022-08-11T04:21:47.259Z,98538.00
2022-08-11T04:24:38.270Z,98531.69
2022-08-11T04:27:37.012Z,98527.00
2022-08-11T04:30:14.967Z,98531.22
2022-08-11T04:32:59.204Z,98535.38
2022-08-11T04:36:02.487Z,98537.50
2022-08-11T04:38:46.146Z,98537.03
2022-08-11T04:42:10.778Z,98548.53
2022-08-11T04:45:10.105Z,98542.75
2022-08-11T04:48:36.383Z,98541.62
2022-08-11T04:51:59.253Z,98541.53
2022-08-11T04:55:13.145Z,98547.75
2022-08-11T04:58:10.814Z,98552.59
2022-08-11T05:01:17.312Z,98550.94
2022-08-11T05:04:02.486Z,98545.19
2022-08-11T05:06:35.036Z,98554.88
2022-08-11T05:09:23.807Z,98560.22
2022-08-11T05:12:08.831Z,98557.06
2022-08-11T05:15:09.868Z,98557.88
2022-08-11T05:18:03.130Z,98562.13
2022-08-11T05:20:49.689Z,98566.38
2022-08-11T05:23:35.508Z,98569.69
2022-08-11T05:26:46.942Z,98577.66
2022-08-11T05:30:01.168Z,98572.09
2022-08-11T05:33:01.734Z,98574.06
2022-08-11T05:36:01.747Z,98573.03
2022-08-11T05:38:50.020Z,98573.91
2022-08-11T05:41:39.483Z,98577.88
2022-08-11T05:44:25.211Z,98574.72
2022-08-11T05:47:11.372Z,98566.03
2022-08-11T05:49:58.310Z,98568.56
2022-08-11T05:52:47.006Z,98570.78
2022-08-11T05:55:34.769Z,98569.38
2022-08-11T05:58:07.285Z,98570.56
2022-08-11T06:00:43.125Z,98570.44
2022-08-11T06:03:11.160Z,98568.84
2022-08-11T06:06:07.717Z,98575.25
2022-08-11T06:08:38.533Z,98577.13
2022-08-11T06:11:06.336Z,98575.97
2022-08-11T06:13:35.906Z,98570.38
2022-08-11T06:16:06.873Z,98564.59
2022-08-11T06:18:34.358Z,98568.28
2022-08-11T06:21:01.599Z,98558.22
2022-08-11T06:23:33.253Z,98566.19
2022-08-11T06:26:09.016Z,98558.66
2022-08-11T06:28:38.841Z,98563.16
2022-08-11T06:31:13.692Z,98559.16
2022-08-11T06:34:10.843Z,98557.34
2022-08-11T06:36:54.743Z,98557.03
2022-08-11T06:39:26.466Z,98555.53
2022-08-11T06:42:05.878Z,98557.88
2022-08-11T06:44:40.747Z,98559.56
2022-08-11T06:47:12.586Z,98561.84
2022-08-11T06:50:07.774Z,98562.63
2022-08-11T06:52:37.714Z,98569.25
2022-08-11T06:55:58.039Z,98566.28
2022-08-11T06:58:18.082Z,98560.97
2022-08-11T07:00:47.996Z,98563.16
2022-08-11T07:03:19.285Z,98555.00
2022-08-11T07:05:52.070Z,98564.75
2022-08-11T07:09:15.047Z,98556.38
2022-08-11T07:12:19.589Z,98558.53
2022-08-11T07:15:09.506Z,98569.63
2022-08-11T07:17:43.325Z,98560.00
2022-08-11T07:20:29.577Z,98555.97
2022-08-11T07:23:17.519Z,98555.34
2022-08-11T07:26:06.993Z,98559.47
2022-08-11T07:28:53.564Z,98556.16
2022-08-11T07:31:42.316Z,98552.53
2022-08-11T07:34:18.841Z,98562.88
2022-08-11T07:36:56.286Z,98555.22
2022-08-11T07:39:26.363Z,98561.37
2022-08-11T07:41:57.344Z,98557.47
2022-08-11T07:44:33.935Z,98564.00
2022-08-11T07:47:20.836Z,98560.94
2022-08-11T07:50:08.091Z,98551.56
2022-08-11T07:52:35.221Z,98554.63
2022-08-11T07:55:08.500Z,98543.41
2022-08-11T07:58:15.954Z,98549.47
2022-08-11T08:01:10.124Z,98542.56
2022-08-11T08:04:06.692Z,98541.06
2022-08-11T08:06:53.358Z,98540.72
2022-08-11T08:09:40.505Z,98541.28
2022-08-11T08:12:27.447Z,98549.47
2022-08-11T08:15:14.498Z,98532.28
2022-08-11T08:18:20.827Z,98545.84
2022-08-11T08:20:45.667Z,98530.31
2022-08-11T08:23:12.461Z,98531.31
2022-08-11T08:25:41.101Z,98529.50
2022-08-11T08:28:14.250Z,98534.56
2022-08-11T08:30:47.889Z,98529.50
2022-08-11T08:33:37.306Z,98530.56
2022-08-11T08:36:12.310Z,98528.59
2022-08-11T08:38:41.224Z,98536.75
2022-08-11T08:41:09.056Z,98530.25
2022-08-11T08:43:48.903Z,98535.13
2022-08-11T08:46:19.871Z,98527.72
2022-08-11T08:48:48.575Z,98532.25
2022-08-11T08:51:58.553Z,98521.53
2022-08-11T08:54:23.987Z,98527.19
2022-08-11T08:56:53.138Z,98527.69
2022-08-11T08:59:23.136Z,98530.41
2022-08-11T09:01:56.488Z,98527.91
2022-08-11T09:04:25.175Z,98527.75
2022-08-11T09:06:52.844Z,98518.22
2022-08-11T09:09:21.176Z,98518.41
2022-08-11T09:11:51.565Z,98528.50
2022-08-11T09:14:19.939Z,98512.88
2022-08-11T09:16:48.136Z,98518.38
2022-08-11T09:19:17.749Z,98511.84
2022-08-11T09:22:12.593Z,98514.34
2022-08-11T09:24:58.886Z,98513.88
2022-08-11T09:27:26.026Z,98509.63
2022-08-11T09:29:53.614Z,98511.75
2022-08-11T09:32:21.792Z,98508.56
2022-08-11T09:34:52.172Z,98497.44
2022-08-11T09:37:55.672Z,98486.56
2022-08-11T09:40:30.220Z,98481.56
2022-08-11T09:43:17.804Z,98489.41
2022-08-11T09:45:51.828Z,98494.53
2022-08-11T09:48:20.847Z,98495.53
2022-08-11T09:50:53.444Z,98481.06
2022-08-11T09:53:36.217Z,98478.97
2022-08-11T09:56:26.560Z,98475.63
2022-08-11T09:58:54.289Z,98481.59
2022-08-11T10:01:29.672Z,98474.38
2022-08-11T10:04:04.764Z,98477.88
2022-08-11T10:06:54.354Z,98467.94
2022-08-11T10:09:24.228Z,98470.34
2022-08-11T10:11:58.111Z,98460.44
2022-08-11T10:14:45.442Z,98462.56
2022-08-11T10:17:13.821Z,98463.50
2022-08-11T10:19:41.682Z,98459.91
2022-08-11T10:22:27.871Z,98451.50
2022-08-11T10:25:15.603Z,98436.22
2022-08-11T10:28:28.631Z,98462.37
2022-08-11T10:31:05.714Z,98441.94
2022-08-11T10:33:57.592Z,98447.78
2022-08-11T10:36:31.721Z,98442.78
2022-08-11T10:39:00.200Z,98440.69
2022-08-11T10:42:07.277Z,98447.78
2022-08-11T10:44:43.594Z,98449.38
2022-08-11T10:47:31.019Z,98452.72
2022-08-11T10:50:16.915Z,98447.22
2022-08-11T10:53:04.487Z,98443.59
2022-08-11T10:55:50.295Z,98431.75
2022-08-11T10:58:37.083Z,98440.38
2022-08-11T11:01:04.585Z,98436.75
2022-08-11T11:03:34.714Z,98433.41
2022-08-11T11:06:12.665Z,98427.75
2022-08-11T11:09:11.935Z,98422.13
2022-08-11T11:12:04.988Z,98432.75
2022-08-11T11:14:58.197Z,98423.63
2022-08-11T11:17:50.119Z,98426.38
2022-08-11T11:20:36.976Z,98411.53
2022-08-11T11:23:13.186Z,98415.09
2022-08-11T11:26:10.091Z,98417.16
2022-08-11T11:28:55.232Z,98413.00
2022-08-11T11:31:37.110Z,98414.91
2022-08-11T11:34:52.967Z,98413.09
2022-08-11T11:37:22.924Z,98424.13
2022-08-11T11:39:50.384Z,98409.69
2022-08-11T11:42:18.759Z,98406.88
2022-08-11T11:44:47.579Z,98406.28
2022-08-11T11:47:16.408Z,98405.78
2022-08-11T11:49:44.429Z,98402.72
2022-08-11T11:52:18.703Z,98392.78
2022-08-11T11:54:52.004Z,98390.06
2022-08-11T11:57:39.282Z,98393.63
2022-08-11T12:00:33.740Z,98387.28
2022-08-11T12:03:03.877Z,98390.66
2022-08-11T12:05:34.338Z,98385.69
2022-08-11T12:08:17.511Z,98378.81
2022-08-11T12:10:49.810Z,98371.59
2022-08-11T12:13:36.340Z,98365.25
2022-08-11T12:16:33.061Z,98355.06
2022-08-11T12:18:53.701Z,98364.53
2022-08-11T12:21:21.070Z,98367.34
2022-08-11T12:24:07.860Z,98369.81
2022-08-11T12:27:02.763Z,98358.22
2022-08-11T12:29:41.111Z,98359.31
2022-08-11T12:32:11.189Z,98357.13
2022-08-11T12:34:38.204Z,98357.34
2022-08-11T12:37:13.848Z,98349.81
2022-08-11T12:40:16.240Z,98350.22
2022-08-11T12:43:21.136Z,98343.97
2022-08-11T12:45:53.523Z,98356.56
2022-08-11T12:48:59.795Z,98337.91
2022-08-11T12:52:13.865Z,98335.25
2022-08-11T12:55:00.161Z,98344.16
2022-08-11T12:57:51.282Z,98335.53
2022-08-11T13:00:38.426Z,98337.69
2022-08-11T13:03:26.544Z,98328.66
2022-08-11T13:05:57.817Z,98333.84
2022-08-11T13:08:26.204Z,98327.41
2022-08-11T13:11:13.038Z,98324.28
2022-08-11T13:13:54.341Z,98323.69
2022-08-11T13:16:57.992Z,98320.12
2022-08-11T13:19:25.574Z,98314.72
2022-08-11T13:21:53.416Z,98308.53
2022-08-11T13:24:21.690Z,98314.81
2022-08-11T13:26:50.607Z,98306.38
2022-08-11T13:29:22.148Z,98305.41
2022-08-11T13:31:49.577Z,98303.03
2022-08-11T13:34:18.123Z,98299.91
2022-08-11T13:36:48.130Z,98300.87
2022-08-11T13:39:15.250Z,98300.19
2022-08-11T13:41:47.160Z,98293.31
2022-08-11T13:44:21.560Z,98288.75
2022-08-11T13:46:52.912Z,98293.19
2022-08-11T13:49:21.496Z,98286.22
2022-08-11T13:51:48.786Z,98280.25
2022-08-11T13:54:22.603Z,98285.19
2022-08-11T13:56:53.808Z,98280.53
2022-08-11T13:59:24.110Z,98279.19
2022-08-11T14:02:22.038Z,98277.50
2022-08-11T14:04:57.708Z,98278.63
2022-08-11T14:07:27.974Z,98273.31
2022-08-11T14:09:59.470Z,98279.47
2022-08-11T14:12:53.486Z,98273.41
2022-08-11T14:15:33.254Z,98268.34
2022-08-11T14:18:06.007Z,98259.03
2022-08-11T14:20:56.600Z,98268.63
2022-08-11T14:23:49.530Z,98268.69
2022-08-11T14:26:24.014Z,98265.22
2022-08-11T14:28:57.205Z,98258.34
2022-08-11T14:31:25.748Z,98271.44
2022-08-11T14:34:00.081Z,98268.41
2022-08-11T14:36:38.472Z,98266.06
2022-08-11T14:39:09.275Z,98260.84
2022-08-11T14:42:10.634Z,98258.13
2022-08-11T14:45:01.222Z,98256.03
2022-08-11T14:47:29.143Z,98258.16
2022-08-11T14:50:10.039Z,98256.19
2022-08-11T14:52:44.066Z,98253.13
2022-08-11T14:55:30.150Z,98245.03
2022-08-11T14:57:58.646Z,98252.44
2022-08-11T15:00:26.457Z,98255.94
2022-08-11T15:03:13.774Z,98251.50
2022-08-11T15:05:56.338Z,98256.00
2022-08-11T15:08:46.334Z,98256.63
2022-08-11T15:11:32.625Z,98242.38
2022-08-11T15:14:01.079Z,98252.66
2022-08-11T15:16:47.550Z,98247.13
2022-08-11T15:19:15.874Z,98247.50
2022-08-11T15:22:01.332Z,98256.28
2022-08-11T15:24:30.942Z,98251.72
2022-08-11T15:27:17.518Z,98248.50
2022-08-11T15:30:02.873Z,98246.59
2022-08-11T15:32:49.265Z,98248.72
2022-08-11T15:35:39.370Z,98238.66
2022-08-11T15:38:07.406Z,98240.47
2022-08-11T15:40:57.750Z,98239.63
2022-08-11T15:44:05.175Z,98234.16
2022-08-11T15:46:34.388Z,98240.25
2022-08-11T15:49:09.248Z,98226.25
2022-08-11T15:51:52.295Z,98222.81
2022-08-11T15:54:23.745Z,98229.09
2022-08-11T15:56:52.844Z,98220.47
2022-08-11T15:59:41.781Z,98211.41
2022-08-11T16:02:33.308Z,98226.63
2022-08-11T16:05:02.531Z,98210.31
2022-08-11T16:07:36.412Z,98202.84
2022-08-11T16:10:23.807Z,98204.28
2022-08-11T16:13:19.469Z,98206.75
2022-08-11T16:16:08.538Z,98200.94
2022-08-11T16:18:42.004Z,98206.00
2022-08-11T16:21:33.662Z,98206.53
2022-08-11T16:24:02.258Z,98198.62
2022-08-11T16:27:07.218Z,98213.16
2022-08-11T16:29:17.233Z,98210.34
2022-08-11T16:32:05.127Z,98205.91
2022-08-11T16:34:51.993Z,98209.94
2022-08-11T16:37:38.029Z,98195.59
2022-08-11T16:40:06.120Z,98205.84
2022-08-11T16:43:06.341Z,98199.63
2022-08-11T16:45:58.156Z,98201.38
2022-08-11T16:48:37.181Z,98200.53
2022-08-11T16:51:09.065Z,98193.47
2022-08-11T16:53:59.756Z,98205.34
2022-08-11T16:56:28.884Z,98201.19
2022-08-11T16:59:16.757Z,98205.28
2022-08-11T17:01:57.190Z,98200.72
2022-08-11T17:05:00.927Z,98208.28
2022-08-11T17:07:48.636Z,98203.63
2022-08-11T17:10:52.014Z,98206.31
2022-08-11T17:13:38.875Z,98207.75
2022-08-11T17:16:06.889Z,98209.78
2022-08-11T17:18:48.293Z,98208.94
2022-08-11T17:21:26.491Z,98204.41
2022-08-11T17:24:08.804Z,98201.87
2022-08-11T17:26:54.501Z,98210.00
2022-08-11T17:29:26.143Z,98217.97
2022-08-11T17:32:12.131Z,98211.81
2022-08-11T17:34:59.449Z,98206.34
2022-08-11T17:37:27.482Z,98210.84
2022-08-11T17:39:56.177Z,98204.19
2022-08-11T17:42:46.773Z,98208.38
2022-08-11T17:45:33.313Z,98207.69
2022-08-11T17:48:20.088Z,98201.00
2022-08-11T17:50:48.884Z,98203.16
2022-08-11T17:53:35.310Z,98200.88
2022-08-11T17:56:22.364Z,98202.22
2022-08-11T17:59:09.454Z,98205.69
2022-08-11T18:01:37.738Z,98211.16
2022-08-11T18:04:10.893Z,98212.75
2022-08-11T18:06:40.552Z,98209.69
2022-08-11T18:09:34.891Z,98209.47
2022-08-11T18:12:22.286Z,98208.19
2022-08-11T18:15:10.155Z,98215.16
2022-08-11T18:17:56.377Z,98212.59
2022-08-11T18:20:42.922Z,98214.12
2022-08-11T18:23:41.978Z,98221.91
2022-08-11T18:26:35.820Z,98222.75
2022-08-11T18:29:21.846Z,98232.75
2022-08-11T18:32:08.872Z,98222.16
2022-08-11T18:34:57.531Z,98230.63
2022-08-11T18:37:46.008Z,98231.50
2022-08-11T18:40:36.626Z,98236.00
2022-08-11T18:43:27.306Z,98239.63
2022-08-11T18:46:18.573Z,98245.38
2022-08-11T18:49:11.767Z,98239.94
2022-08-11T18:51:59.546Z,98250.41
2022-08-11T18:54:47.072Z,98253.03
2022-08-11T18:57:35.183Z,98249.56
2022-08-11T19:00:35.891Z,98251.34
2022-08-11T19:03:22.219Z,98255.50
2022-08-11T19:06:38.695Z,98260.38
2022-08-11T19:09:18.392Z,98254.06
2022-08-11T19:12:04.935Z,98255.16
2022-08-11T19:14:53.625Z,98251.28
2022-08-11T19:17:45.191Z,98254.47
2022-08-11T19:20:34.337Z,98250.41
2022-08-11T19:23:21.208Z,98255.94
2022-08-11T19:26:06.817Z,98255.91
2022-08-11T19:28:54.193Z,98258.56
2022-08-11T19:31:44.363Z,98256.69
2022-08-11T19:34:33.464Z,98243.62
2022-08-11T19:37:24.070Z,98249.25
2022-08-11T19:40:12.202Z,98253.22
2022-08-11T19:43:00.339Z,98253.88
2022-08-11T19:45:45.921Z,98250.53
2022-08-11T19:48:40.898Z,98251.00
2022-08-11T19:51:27.728Z,98248.81
2022-08-11T19:54:14.107Z,98246.22
2022-08-11T19:57:00.697Z,98255.03
2022-08-11T19:59:46.583Z,98255.59
2022-08-11T20:02:32.133Z,98256.03
2022-08-11T20:05:17.493Z,98259.72
2022-08-11T20:08:04.503Z,98259.88
2022-08-11T20:10:53.066Z,98258.75
2022-08-11T20:13:41.732Z,98262.50
2022-08-11T20:16:30.821Z,98258.06
2022-08-11T20:19:16.800Z,98254.97
2022-08-11T20:22:07.910Z,98253.09
2022-08-11T20:24:54.921Z,98251.69
2022-08-11T20:27:42.617Z,98263.50
2022-08-11T20:30:28.339Z,98261.19
2022-08-11T20:33:14.031Z,98261.97
2022-08-11T20:35:59.525Z,98263.19
2022-08-11T20:38:48.553Z,98265.09
2022-08-11T20:41:58.236Z,98259.03
2022-08-11T20:44:40.464Z,98265.66
2022-08-11T20:47:27.128Z,98263.28
2022-08-11T20:50:17.838Z,98262.25
2022-08-11T20:53:05.502Z,98262.59
2022-08-11T20:55:53.704Z,98272.09
2022-08-11T21:01:46.556Z,98263.72
2022-08-11T21:04:32.980Z,98257.44
2022-08-11T21:07:27.601Z,98271.06
2022-08-11T21:10:22.855Z,98272.34
2022-08-11T21:13:25.768Z,98274.47
2022-08-11T21:16:25.359Z,98276.88
2022-08-11T21:19:15.731Z,98279.75
2022-08-11T21:22:01.792Z,98281.06
2022-08-11T21:24:49.477Z,98281.84
2022-08-11T21:27:37.187Z,98289.84
2022-08-11T21:30:23.834Z,98292.66
2022-08-11T21:33:09.530Z,98295.25
2022-08-11T21:35:55.393Z,98285.97
2022-08-11T21:38:41.163Z,98294.13
2022-08-11T21:41:26.810Z,98295.63
2022-08-11T21:44:13.389Z,98305.75
2022-08-11T21:46:59.876Z,98300.59
2022-08-11T21:49:45.545Z,98300.91
2022-08-11T21:52:31.213Z,98307.72
2022-08-11T21:55:17.435Z,98304.09
2022-08-11T21:58:02.935Z,98303.41
2022-08-11T22:00:48.438Z,98313.50
2022-08-11T22:03:41.154Z,98306.09
2022-08-11T22:06:36.463Z,98304.34
2022-08-11T22:09:22.494Z,98306.88
2022-08-11T22:12:34.482Z,98310.50
2022-08-11T22:15:14.435Z,98304.72
2022-08-11T22:18:00.052Z,98308.53
2022-08-11T22:20:46.725Z,98302.75
2022-08-11T22:23:35.826Z,98302.66
2022-08-11T22:26:22.751Z,98303.50
2022-08-11T22:29:08.984Z,98309.34
2022-08-11T22:31:55.487Z,98296.47
2022-08-11T22:34:52.857Z,98307.03
2022-08-11T22:37:41.204Z,98300.75
2022-08-11T22:40:28.050Z,98294.44
2022-08-11T22:43:14.006Z,98285.56
2022-08-11T22:45:59.634Z,98289.47
2022-08-11T22:48:48.519Z,98299.06
2022-08-11T22:51:34.873Z,98291.47
2022-08-11T22:54:23.639Z,98293.63
2022-08-11T22:57:09.946Z,98293.66
2022-08-11T22:59:55.744Z,98294.47
2022-08-11T23:02:41.806Z,98292.47
2022-08-11T23:05:28.029Z,98279.03
2022-08-11T23:08:14.678Z,98285.69
2022-08-11T23:11:00.631Z,98281.19
2022-08-11T23:13:48.290Z,98273.66
2022-08-11T23:16:34.221Z,98268.16
2022-08-11T23:20:04.595Z,98264.66
2022-08-11T23:22:43.750Z,98261.94
2022-08-11T23:25:31.693Z,98262.13
2022-08-11T23:28:18.116Z,98260.00
2022-08-11T23:31:04.145Z,98261.63
2022-08-11T23:33:50.535Z,98249.28
2022-08-11T23:36:47.166Z,98262.69
2022-08-11T23:39:34.622Z,98260.75
2022-08-11T23:42:24.009Z,98256.72
2022-08-11T23:45:10.221Z,98263.44
2022-08-11T23:47:57.543Z,98267.06
2022-08-11T23:50:43.950Z,98266.81
2022-08-11T23:53:30.996Z,98267.78
2022-08-11T23:56:17.009Z,98263.16
2022-08-11T23:59:09.159Z,98258.13
